Time;durP1;ratioP1;P1;durP2;ratioP2;P2;SDS_P1;SDS_P2;PMS_P1;PMS_P2;Temp;Humidity;BMP_temperature;BMP_pressure;BME280_temperature;BME280_humidity;BME280_pressure;Samples;Min_cycle;Max_cycle;Signal;HPM_P1;HPM_P2
2022/04/05 00:01:47;;;;;;;3.78;1.50;;;20.30;52.10;;;;;;5076167;28;20044;-65
2022/04/05 00:04:14;;;;;;;2.75;1.23;;;20.30;52.10;;;;;;5074778;28;20468;-64
2022/04/05 00:06:39;;;;;;;3.33;1.40;;;20.30;52.10;;;;;;5075531;28;20048;-64
2022/04/05 00:09:05;;;;;;;3.00;1.35;;;20.20;52.10;;;;;;5075666;28;20503;-65
2022/04/05 00:11:30;;;;;;;3.50;1.10;;;20.20;52.00;;;;;;5074684;28;20047;-64
2022/04/05 00:13:55;;;;;;;3.38;1.30;;;20.20;52.00;;;;;;5075490;28;20502;-64
2022/04/05 00:16:21;;;;;;;4.30;1.30;;;20.20;52.00;;;;;;5075594;28;20048;-65
2022/04/05 00:18:47;;;;;;;5.05;1.58;;;20.20;52.00;;;;;;5074980;28;20201;-65
2022/04/05 00:21:12;;;;;;;3.13;1.67;;;20.20;52.00;;;;;;5075185;28;20052;-64
2022/04/05 00:23:38;;;;;;;3.35;1.40;;;20.20;52.00;;;;;;5075656;28;20052;-64
2022/04/05 00:26:03;;;;;;;3.13;1.27;;;20.20;52.00;;;;;;5074665;28;20036;-64
2022/04/05 00:28:29;;;;;;;2.30;1.10;;;20.20;52.00;;;;;;5074957;28;20480;-64
2022/04/05 00:30:54;;;;;;;3.30;1.30;;;20.20;52.00;;;;;;5074558;28;20044;-65
2022/04/05 00:33:20;;;;;;;4.47;1.42;;;20.10;52.00;;;;;;5075321;28;20078;-64
2022/04/05 00:35:45;;;;;;;3.42;1.13;;;20.10;52.00;;;;;;5074687;28;20162;-64
2022/04/05 00:38:11;;;;;;;2.97;1.25;;;20.10;52.00;;;;;;5074204;28;20404;-64
2022/04/05 00:40:37;;;;;;;2.58;1.30;;;20.10;52.00;;;;;;5075499;28;20051;-64
2022/04/05 00:43:05;;;;;;;4.15;1.48;;;20.10;52.00;;;;;;5075093;28;20052;-64
2022/04/05 00:45:34;;;;;;;3.95;1.23;;;20.10;51.90;;;;;;5074415;28;20090;-64
2022/04/05 00:47:59;;;;;;;3.55;1.40;;;20.10;51.90;;;;;;5075152;28;20124;-64
2022/04/05 00:50:25;;;;;;;3.90;1.20;;;20.10;51.90;;;;;;5074542;28;20083;-64
2022/04/05 00:52:50;;;;;;;3.38;1.08;;;20.10;51.90;;;;;;5072976;28;20037;-64
2022/04/05 00:55:19;;;;;;;4.45;1.55;;;20.10;51.90;;;;;;5074872;28;20048;-64
2022/04/05 00:57:45;;;;;;;3.47;1.15;;;20.10;51.90;;;;;;5074595;28;20048;-64
2022/04/05 01:00:11;;;;;;;2.83;1.05;;;20.10;52.00;;;;;;5074093;28;20055;-64
2022/04/05 01:02:38;;;;;;;2.97;1.30;;;20.00;51.90;;;;;;5074940;28;20048;-64
2022/04/05 01:05:05;;;;;;;3.72;1.65;;;20.10;51.90;;;;;;5074604;28;20090;-64
2022/04/05 01:07:31;;;;;;;3.58;1.23;;;20.00;51.90;;;;;;5073561;28;20579;-64
2022/04/05 01:09:57;;;;;;;3.15;1.30;;;20.00;51.90;;;;;;5073478;28;20048;-64
2022/04/05 01:12:23;;;;;;;3.70;0.95;;;20.00;51.90;;;;;;5074545;28;20123;-65
2022/04/05 01:14:48;;;;;;;2.33;1.10;;;20.00;51.90;;;;;;5073709;28;20503;-65
2022/04/05 01:17:14;;;;;;;2.58;1.00;;;20.00;51.90;;;;;;5074079;28;20047;-65
2022/04/05 01:19:40;;;;;;;2.55;0.90;;;20.00;51.90;;;;;;5073349;28;20099;-64
2022/04/05 01:22:05;;;;;;;2.38;1.00;;;20.00;51.90;;;;;;5072270;28;20579;-64
2022/04/05 01:24:32;;;;;;;3.50;1.00;;;20.00;51.90;;;;;;5073842;28;20135;-64
2022/04/05 01:26:58;;;;;;;3.22;0.98;;;20.00;51.90;;;;;;5074194;28;20044;-65
2022/04/05 01:29:26;;;;;;;2.38;1.13;;;20.00;52.00;;;;;;5073340;28;20033;-64
2022/04/05 01:31:55;;;;;;;2.67;0.90;;;20.00;52.00;;;;;;5074530;28;20029;-64
2022/04/05 01:34:23;;;;;;;1.80;0.88;;;20.00;51.90;;;;;;5073314;28;20101;-64
2022/04/05 01:36:50;;;;;;;2.23;0.80;;;20.00;51.90;;;;;;5074395;28;20040;-64
2022/04/05 01:39:16;;;;;;;2.75;1.25;;;20.00;51.90;;;;;;5073597;28;20041;-64
2022/04/05 01:41:42;;;;;;;2.42;0.88;;;19.90;51.90;;;;;;5073644;28;20060;-64
2022/04/05 01:44:08;;;;;;;2.78;1.02;;;20.00;52.00;;;;;;5074089;28;20129;-64
2022/04/05 01:46:34;;;;;;;3.60;1.30;;;20.00;52.00;;;;;;5072967;28;20119;-64
2022/04/05 01:48:59;;;;;;;2.03;0.80;;;20.00;51.90;;;;;;5072702;28;20075;-64
2022/04/05 01:51:25;;;;;;;2.38;1.02;;;20.00;52.00;;;;;;5073232;28;20105;-63
2022/04/05 01:53:51;;;;;;;2.63;0.80;;;20.00;51.90;;;;;;5073484;28;20041;-64
2022/04/05 01:56:16;;;;;;;3.30;0.98;;;20.00;51.90;;;;;;5072658;28;20090;-64
2022/04/05 01:58:42;;;;;;;2.58;1.02;;;20.00;51.90;;;;;;5073565;28;20048;-63
2022/04/05 02:01:07;;;;;;;2.85;1.10;;;20.00;51.90;;;;;;5073472;28;20051;-64
2022/04/05 02:03:33;;;;;;;3.35;0.90;;;20.00;51.90;;;;;;5072725;28;20041;-64
2022/04/05 02:05:58;;;;;;;2.63;0.90;;;20.00;51.90;;;;;;5072983;28;20040;-64
2022/04/05 02:08:24;;;;;;;2.63;0.80;;;20.00;51.90;;;;;;5073326;28;20052;-64
2022/04/05 02:10:50;;;;;;;2.10;1.05;;;20.00;51.90;;;;;;5072810;28;20203;-64
2022/04/05 02:13:15;;;;;;;1.88;0.80;;;20.00;51.90;;;;;;5073415;28;20084;-63
2022/04/05 02:15:41;;;;;;;3.28;1.05;;;20.00;51.90;;;;;;5073459;28;20041;-63
2022/04/05 02:18:07;;;;;;;1.58;0.85;;;20.00;51.80;;;;;;5072398;28;20044;-64
2022/04/05 02:20:33;;;;;;;1.75;0.90;;;20.00;51.80;;;;;;5072812;28;20055;-64
2022/04/05 02:22:59;;;;;;;2.60;0.82;;;20.10;51.80;;;;;;5073163;28;20101;-64
2022/04/05 02:25:26;;;;;;;2.92;0.88;;;20.00;51.70;;;;;;5072318;28;20044;-64
2022/04/05 02:27:51;;;;;;;2.05;0.73;;;20.00;51.70;;;;;;5073314;28;20044;-64
2022/04/05 02:30:17;;;;;;;2.80;0.90;;;20.00;51.70;;;;;;5072919;28;20503;-64
2022/04/05 02:32:43;;;;;;;2.03;0.90;;;20.10;51.80;;;;;;5072559;28;20056;-64
2022/04/05 02:35:10;;;;;;;3.10;0.98;;;20.10;51.80;;;;;;5073153;28;20048;-64
2022/04/05 02:37:36;;;;;;;2.65;0.90;;;20.10;51.80;;;;;;5072477;28;20044;-64
2022/04/05 02:40:02;;;;;;;1.83;0.70;;;20.10;51.70;;;;;;5073242;28;20453;-64
2022/04/05 02:42:28;;;;;;;3.28;0.80;;;20.10;51.80;;;;;;5072633;28;20055;-64
2022/04/05 02:44:53;;;;;;;3.00;0.95;;;20.10;51.80;;;;;;5072398;28;20051;-64
2022/04/05 02:47:19;;;;;;;2.13;0.63;;;20.10;51.70;;;;;;5072516;28;20123;-64
2022/04/05 02:49:44;;;;;;;1.55;0.63;;;20.10;51.70;;;;;;5072997;28;20052;-64
2022/04/05 02:52:10;;;;;;;2.50;0.90;;;20.10;51.70;;;;;;5071965;28;20043;-64
2022/04/05 02:54:35;;;;;;;1.60;0.73;;;20.10;51.70;;;;;;5072649;28;20484;-64
2022/04/05 02:57:01;;;;;;;2.33;0.80;;;20.10;51.70;;;;;;5072880;28;20040;-64
2022/04/05 02:59:26;;;;;;;1.90;0.60;;;20.10;51.70;;;;;;5071624;28;20387;-64
2022/04/05 03:01:52;;;;;;;2.33;1.10;;;20.10;51.70;;;;;;5072918;28;20111;-64
2022/04/05 03:04:18;;;;;;;1.77;0.50;;;20.10;51.70;;;;;;5072557;28;20048;-63
2022/04/05 03:06:43;;;;;;;1.83;0.52;;;20.10;51.60;;;;;;5071763;28;20131;-64
2022/04/05 03:09:10;;;;;;;1.73;0.70;;;20.10;51.60;;;;;;5072547;28;20510;-64
2022/04/05 03:11:36;;;;;;;2.38;0.77;;;20.10;51.60;;;;;;5072490;28;20048;-64
2022/04/05 03:14:01;;;;;;;1.67;0.60;;;20.10;51.60;;;;;;5071766;28;20143;-64
2022/04/05 03:16:27;;;;;;;1.55;0.50;;;20.20;51.60;;;;;;5072577;28;20123;-64
2022/04/05 03:18:53;;;;;;;1.92;0.60;;;20.20;51.70;;;;;;5072488;28;20047;-63
2022/04/05 03:21:18;;;;;;;1.35;0.50;;;20.20;51.70;;;;;;5071577;28;20051;-63
2022/04/05 03:23:44;;;;;;;1.85;0.52;;;20.10;51.60;;;;;;5072784;28;20041;-64
2022/04/05 03:26:09;;;;;;;1.70;0.60;;;20.20;51.60;;;;;;5072276;28;20051;-63
2022/04/05 03:28:35;;;;;;;1.02;0.50;;;20.20;51.60;;;;;;5071414;28;20098;-63
2022/04/05 03:31:00;;;;;;;2.08;0.50;;;20.20;51.60;;;;;;5072302;28;20080;-63
2022/04/05 03:33:26;;;;;;;2.13;0.95;;;20.20;51.60;;;;;;5072388;28;20041;-63
2022/04/05 03:35:54;;;;;;;1.92;0.60;;;20.20;51.60;;;;;;5071436;28;20059;-64
2022/04/05 03:38:19;;;;;;;1.48;0.57;;;20.20;51.60;;;;;;5072226;28;20053;-64
2022/04/05 03:40:46;;;;;;;1.65;0.52;;;20.20;51.60;;;;;;5072196;28;20044;-64
2022/04/05 03:43:12;;;;;;;1.85;0.60;;;20.20;51.60;;;;;;5072014;28;20064;-64
2022/04/05 03:45:38;;;;;;;1.10;0.50;;;20.20;51.60;;;;;;5072562;28;20121;-64
2022/04/05 03:48:04;;;;;;;1.67;0.55;;;20.20;51.60;;;;;;5071645;28;20041;-64
2022/04/05 03:50:31;;;;;;;2.67;0.60;;;20.20;51.60;;;;;;5071991;28;20350;-64
2022/04/05 03:52:59;;;;;;;2.58;0.82;;;20.20;51.60;;;;;;5072229;28;20048;-64
2022/04/05 03:55:25;;;;;;;0.95;0.50;;;20.20;51.50;;;;;;5071300;28;20036;-64
2022/04/05 03:57:50;;;;;;;1.33;0.60;;;20.20;51.60;;;;;;5072257;28;20040;-64
2022/04/05 04:00:16;;;;;;;2.90;0.77;;;20.20;51.60;;;;;;5071989;28;20043;-63
2022/04/05 04:02:42;;;;;;;1.13;0.43;;;20.20;51.60;;;;;;5071364;28;20040;-64
2022/04/05 04:05:08;;;;;;;1.17;0.50;;;20.20;51.50;;;;;;5071510;28;20037;-63
2022/04/05 04:07:39;;;;;;;1.88;0.50;;;20.20;51.50;;;;;;5071145;28;20052;-64
2022/04/05 04:10:05;;;;;;;1.52;0.50;;;20.20;51.60;;;;;;5071755;28;20040;-64
2022/04/05 04:12:32;;;;;;;1.00;0.40;;;20.20;51.50;;;;;;5075089;28;20055;-64
2022/04/05 04:14:57;;;;;;;1.05;0.50;;;20.30;51.60;;;;;;5075644;28;20033;-64
2022/04/05 04:17:25;;;;;;;2.15;0.70;;;20.20;51.50;;;;;;5074715;28;20036;-64
2022/04/05 04:19:51;;;;;;;1.35;0.50;;;20.20;51.50;;;;;;5075403;28;20106;-64
2022/04/05 04:22:17;;;;;;;1.15;0.52;;;20.30;51.60;;;;;;5074971;28;20545;-63
2022/04/05 04:24:43;;;;;;;1.52;0.50;;;20.20;51.40;;;;;;5075037;28;20049;-64
2022/04/05 04:27:11;;;;;;;0.80;0.40;;;20.20;51.40;;;;;;5075612;28;20039;-64
2022/04/05 04:29:37;;;;;;;0.70;0.40;;;20.20;51.40;;;;;;5075399;28;20062;-64
2022/04/05 04:32:02;;;;;;;1.33;0.38;;;20.20;51.50;;;;;;5074520;28;20052;-64
2022/04/05 04:34:28;;;;;;;0.80;0.38;;;20.30;51.50;;;;;;5074875;28;20037;-63
2022/04/05 04:36:53;;;;;;;1.63;0.45;;;20.30;51.50;;;;;;5075406;28;20045;-64
2022/04/05 04:39:19;;;;;;;1.45;0.40;;;20.30;51.50;;;;;;5073188;28;20045;-64
2022/04/05 04:41:44;;;;;;;1.77;0.43;;;20.30;51.50;;;;;;5075132;28;20048;-64
2022/04/05 04:44:10;;;;;;;2.22;0.50;;;20.30;51.50;;;;;;5074612;28;20047;-64
2022/04/05 04:46:36;;;;;;;2.13;0.50;;;20.30;51.40;;;;;;5074800;28;20040;-64
2022/04/05 04:49:01;;;;;;;2.05;0.52;;;20.30;51.40;;;;;;5074938;28;20053;-64
2022/04/05 04:51:27;;;;;;;2.25;0.50;;;20.30;51.40;;;;;;5073798;28;20052;-64
2022/04/05 04:53:52;;;;;;;1.73;0.50;;;20.30;51.40;;;;;;5075214;28;20044;-64
2022/04/05 04:56:18;;;;;;;0.90;0.40;;;20.30;51.50;;;;;;5074381;28;20048;-64
2022/04/05 04:58:44;;;;;;;0.80;0.35;;;20.30;51.50;;;;;;5074316;28;20056;-64
2022/04/05 05:01:09;;;;;;;0.85;0.40;;;20.30;51.50;;;;;;5075156;28;20127;-64
2022/04/05 05:03:35;;;;;;;1.08;0.60;;;20.30;51.40;;;;;;5074819;28;20152;-64
2022/04/05 05:06:00;;;;;;;1.25;0.43;;;20.30;51.40;;;;;;5073810;28;20051;-64
2022/04/05 05:08:26;;;;;;;0.93;0.30;;;20.30;51.40;;;;;;5074475;28;20052;-64
2022/04/05 05:10:52;;;;;;;0.90;0.30;;;20.30;51.30;;;;;;5074655;28;20122;-64
2022/04/05 05:13:17;;;;;;;1.45;0.40;;;20.30;51.30;;;;;;5073877;28;20044;-64
2022/04/05 05:15:43;;;;;;;1.10;0.40;;;20.30;51.40;;;;;;5074745;28;20033;-64
2022/04/05 05:18:09;;;;;;;1.50;0.40;;;20.30;51.40;;;;;;5074672;28;20088;-64
2022/04/05 05:20:34;;;;;;;1.70;0.40;;;20.30;51.40;;;;;;5073199;28;20044;-64
2022/04/05 05:23:00;;;;;;;1.17;0.40;;;20.30;51.30;;;;;;5074487;28;20169;-64
2022/04/05 05:25:25;;;;;;;1.00;0.30;;;20.30;51.40;;;;;;5074257;28;20088;-64
2022/04/05 05:27:51;;;;;;;0.85;0.40;;;20.30;51.30;;;;;;5073651;28;20101;-64
2022/04/05 05:30:16;;;;;;;0.45;0.30;;;20.30;51.30;;;;;;5074129;28;20036;-64
2022/04/05 05:32:49;;;;;;;0.77;0.30;;;20.30;51.30;;;;;;5073725;28;20048;-64
2022/04/05 05:35:15;;;;;;;1.40;0.45;;;20.30;52.00;;;;;;5073260;28;20480;-64
2022/04/05 05:37:41;;;;;;;1.02;0.50;;;20.30;51.30;;;;;;5074370;28;20044;-64
2022/04/05 05:40:07;;;;;;;0.98;0.35;;;20.40;51.30;;;;;;5073979;28;20120;-64
2022/04/05 05:42:32;;;;;;;0.90;0.30;;;20.40;51.30;;;;;;5072957;28;20040;-64
2022/04/05 05:44:58;;;;;;;1.63;0.40;;;20.40;51.30;;;;;;5073736;28;20479;-64
2022/04/05 05:47:24;;;;;;;2.13;0.40;;;20.40;51.30;;;;;;5072895;28;20044;-64
2022/04/05 05:49:49;;;;;;;0.95;0.35;;;20.40;51.30;;;;;;5073602;28;20044;-64
2022/04/05 05:52:15;;;;;;;1.60;0.40;;;20.40;51.30;;;;;;5073220;28;20627;-64
2022/04/05 05:54:40;;;;;;;0.82;0.30;;;20.40;51.30;;;;;;5073145;28;20043;-64
2022/04/05 05:57:06;;;;;;;1.75;0.40;;;20.40;51.30;;;;;;5073506;28;20438;-65
2022/04/05 05:59:31;;;;;;;0.50;0.30;;;20.40;51.30;;;;;;5073230;28;20045;-64
2022/04/05 06:01:57;;;;;;;0.98;0.30;;;20.40;51.30;;;;;;5073054;28;20056;-63
2022/04/05 06:04:22;;;;;;;1.70;0.30;;;20.40;51.30;;;;;;5073309;28;20045;-63
2022/04/05 06:06:48;;;;;;;2.30;0.50;;;20.40;51.30;;;;;;5073298;28;20056;-63
2022/04/05 06:09:13;;;;;;;2.60;0.70;;;20.50;51.30;;;;;;5072484;28;20044;-63
2022/04/05 06:11:39;;;;;;;1.40;0.30;;;20.50;51.40;;;;;;5073684;28;20044;-63
2022/04/05 06:14:04;;;;;;;1.73;0.50;;;20.50;51.30;;;;;;5073052;28;20041;-63
2022/04/05 06:16:30;;;;;;;1.45;0.38;;;20.50;51.30;;;;;;5072139;28;20512;-63
2022/04/05 06:18:55;;;;;;;1.17;0.60;;;20.50;51.40;;;;;;5073204;28;20080;-63
2022/04/05 06:21:21;;;;;;;2.00;0.40;;;20.50;51.30;;;;;;5072846;28;20093;-63
2022/04/05 06:23:46;;;;;;;1.55;0.30;;;20.50;52.00;;;;;;5072689;28;20040;-63
2022/04/05 06:26:12;;;;;;;2.17;0.40;;;20.50;51.40;;;;;;5073007;28;20125;-63
2022/04/05 06:28:38;;;;;;;2.47;0.50;;;20.50;51.40;;;;;;5071710;28;20041;-63
2022/04/05 06:31:04;;;;;;;1.27;0.30;;;20.50;51.50;;;;;;5071668;28;20044;-63
2022/04/05 06:33:29;;;;;;;0.93;0.32;;;20.50;51.50;;;;;;5072221;28;20111;-63
2022/04/05 06:35:56;;;;;;;1.20;0.40;;;20.50;51.60;;;;;;5072870;28;20207;-63
2022/04/05 06:38:22;;;;;;;2.30;0.60;;;20.50;51.70;;;;;;5072108;28;20082;-63
2022/04/05 06:40:48;;;;;;;2.17;0.55;;;20.60;51.70;;;;;;5072919;28;20048;-63
2022/04/05 06:43:14;;;;;;;1.63;0.50;;;20.50;51.70;;;;;;5072871;28;20044;-63
2022/04/05 06:45:41;;;;;;;0.93;0.40;;;20.60;51.90;;;;;;5072360;28;20036;-63
2022/04/05 06:48:06;;;;;;;1.25;0.30;;;20.60;51.90;;;;;;5072746;28;20056;-63
2022/04/05 06:50:33;;;;;;;1.88;0.50;;;20.60;52.00;;;;;;5072591;28;20047;-63
2022/04/05 06:52:59;;;;;;;2.70;0.50;;;20.60;52.00;;;;;;5071948;28;20045;-64
2022/04/05 06:55:24;;;;;;;1.77;0.50;;;20.60;52.00;;;;;;5072397;28;20085;-63
2022/04/05 06:57:50;;;;;;;1.17;0.40;;;20.60;52.00;;;;;;5071869;28;20052;-63
2022/04/05 07:00:18;;;;;;;2.15;0.50;;;20.60;52.10;;;;;;5072177;28;20049;-64
2022/04/05 07:02:43;;;;;;;1.27;0.63;;;20.60;52.10;;;;;;5072902;28;20044;-63
2022/04/05 07:05:11;;;;;;;2.80;0.38;;;20.60;52.10;;;;;;5071712;28;20040;-63
2022/04/05 07:07:37;;;;;;;;;;;20.70;52.20;;;;;;5072747;28;20145;-63
2022/04/05 07:10:04;;;;;;;3.28;0.60;;;20.60;52.20;;;;;;5072368;28;20383;-64
2022/04/05 07:12:31;;;;;;;2.22;0.60;;;20.70;52.20;;;;;;5071585;28;20044;-63
2022/04/05 07:14:56;;;;;;;2.22;0.50;;;20.70;52.20;;;;;;5072516;28;20536;-63
2022/04/05 07:17:22;;;;;;;1.50;0.52;;;20.70;52.30;;;;;;5072274;28;20527;-63
2022/04/05 07:19:47;;;;;;;2.90;0.55;;;20.70;52.40;;;;;;5071613;28;20049;-63
2022/04/05 07:22:13;;;;;;;3.15;0.60;;;20.70;52.40;;;;;;5071794;28;20032;-66
2022/04/05 07:24:38;;;;;;;5.55;0.57;;;20.70;52.50;;;;;;5072263;28;20064;-63
2022/04/05 07:27:04;;;;;;;2.70;0.50;;;20.70;52.70;;;;;;5069763;28;20456;-65
2022/04/05 07:29:29;;;;;;;2.53;0.68;;;20.80;52.90;;;;;;5071885;28;20400;-69
2022/04/05 07:31:55;;;;;;;3.20;0.65;;;20.80;52.90;;;;;;5072375;28;20037;-65
2022/04/05 07:34:21;;;;;;;3.53;0.80;;;20.80;53.00;;;;;;5071545;28;20484;-64
2022/04/05 07:36:46;;;;;;;2.97;0.88;;;20.80;53.00;;;;;;5072175;28;20506;-62
2022/04/05 07:39:12;;;;;;;3.30;0.82;;;20.80;53.00;;;;;;5072150;28;20044;-62
2022/04/05 07:41:38;;;;;;;2.75;0.80;;;20.80;53.10;;;;;;5071678;28;20454;-63
2022/04/05 07:44:04;;;;;;;2.63;0.90;;;20.80;53.10;;;;;;5073035;28;20522;-63
2022/04/05 07:46:29;;;;;;;2.58;0.90;;;20.80;53.10;;;;;;5076165;28;20064;-63
2022/04/05 07:48:55;;;;;;;2.22;0.70;;;20.90;53.20;;;;;;5075403;28;20396;-63
2022/04/05 07:51:20;;;;;;;2.88;0.88;;;20.90;53.20;;;;;;5075951;28;20119;-63
2022/04/05 07:53:46;;;;;;;2.67;1.00;;;20.90;53.30;;;;;;5075936;28;20131;-62
2022/04/05 07:56:13;;;;;;;1.83;0.73;;;20.90;53.30;;;;;;5074862;28;20082;-63
2022/04/05 07:58:39;;;;;;;3.28;0.80;;;20.90;53.30;;;;;;5077025;28;20502;-62
2022/04/05 08:01:05;;;;;;;1.85;0.75;;;20.90;53.30;;;;;;5075213;28;20041;-63
2022/04/05 08:03:30;;;;;;;2.60;1.20;;;20.90;53.30;;;;;;5075799;28;20094;-63
2022/04/05 08:05:56;;;;;;;2.78;1.10;;;20.90;53.30;;;;;;5075809;28;20089;-63
2022/04/05 08:08:22;;;;;;;2.17;0.93;;;21.00;53.40;;;;;;5074466;28;20377;-64
2022/04/05 08:10:47;;;;;;;2.60;1.10;;;21.00;53.40;;;;;;5075423;28;20071;-64
2022/04/05 08:13:13;;;;;;;2.50;1.02;;;21.00;53.40;;;;;;5075521;28;20057;-63
2022/04/05 08:15:41;;;;;;;2.88;1.00;;;21.00;53.40;;;;;;5074200;28;20067;-64
2022/04/05 08:18:07;;;;;;;4.68;1.27;;;21.00;53.50;;;;;;5075179;28;20055;-64
2022/04/05 08:20:34;;;;;;;2.67;1.15;;;21.00;53.60;;;;;;5074291;28;20045;-64
2022/04/05 08:22:59;;;;;;;3.15;1.05;;;21.00;53.60;;;;;;5074269;28;20546;-64
2022/04/05 08:25:25;;;;;;;2.65;0.88;;;21.00;53.70;;;;;;5074784;28;20086;-64
2022/04/05 08:27:50;;;;;;;3.75;1.05;;;21.00;53.70;;;;;;5075321;28;20044;-63
2022/04/05 08:30:17;;;;;;;4.70;1.00;;;21.10;53.80;;;;;;5074360;28;20041;-63
2022/04/05 08:32:43;;;;;;;2.33;1.10;;;21.10;53.80;;;;;;5074924;28;20048;-65
2022/04/05 08:35:11;;;;;;;3.75;1.48;;;21.10;53.70;;;;;;5075194;28;20055;-63
2022/04/05 08:37:36;;;;;;;2.13;1.15;;;21.00;53.60;;;;;;5074581;28;20090;-63
2022/04/05 08:40:06;;;;;;;3.17;1.10;;;21.10;53.50;;;;;;5074972;28;20037;-63
2022/04/05 08:42:40;;;;;;;4.63;1.50;;;21.10;53.40;;;;;;5075294;28;20139;-65
2022/04/05 08:45:10;;;;;;;5.78;1.23;;;21.10;53.40;;;;;;5074366;28;20383;-65
2022/04/05 08:47:38;;;;;;;9.98;1.67;;;21.10;53.40;;;;;;5075143;28;20051;-63
2022/04/05 08:50:04;;;;;;;5.68;1.33;;;21.10;53.50;;;;;;5074967;28;20058;-64
2022/04/05 08:52:29;;;;;;;10.80;1.70;;;21.10;54.10;;;;;;5074137;28;20040;-63
2022/04/05 08:54:55;;;;;;;7.10;2.17;;;21.10;53.30;;;;;;5075111;28;20059;-63
2022/04/05 08:57:21;;;;;;;7.18;1.65;;;21.10;53.30;;;;;;5073068;28;20511;-63
2022/04/05 08:59:46;;;;;;;7.55;1.58;;;21.10;53.50;;;;;;5074916;28;20521;-62
2022/04/05 09:02:14;;;;;;;8.80;1.60;;;21.10;53.50;;;;;;5074653;28;20365;-62
2022/04/05 09:04:39;;;;;;;5.80;1.67;;;21.10;53.60;;;;;;5074149;28;20049;-63
2022/04/05 09:07:18;;;;;;;8.98;1.33;;;21.10;53.80;;;;;;5074437;28;20048;-63
2022/04/05 09:09:44;;;;;;;7.75;1.45;;;21.20;53.80;;;;;;5074726;28;20052;-63
2022/04/05 09:12:18;;;;;;;5.95;1.67;;;21.20;53.90;;;;;;5074157;28;20039;-64
2022/04/05 09:14:44;;;;;;;6.22;1.45;;;21.10;53.90;;;;;;5074207;28;20046;-64
2022/04/05 09:17:12;;;;;;;4.95;1.27;;;21.20;54.00;;;;;;5074442;28;20041;-64
2022/04/05 09:19:42;;;;;;;5.72;1.30;;;21.20;54.00;;;;;;5073743;28;20529;-64
2022/04/05 09:22:08;;;;;;;5.00;1.42;;;21.20;54.00;;;;;;5074538;28;20047;-63
2022/04/05 09:24:35;;;;;;;7.07;1.67;;;21.20;54.10;;;;;;5073919;28;20476;-64
2022/04/05 09:27:01;;;;;;;5.07;1.50;;;21.20;54.10;;;;;;5073746;28;20059;-64
2022/04/05 09:29:44;;;;;;;5.53;1.40;;;21.20;54.20;;;;;;5074245;28;20135;-64
2022/04/05 09:32:10;;;;;;;4.70;1.50;;;21.20;54.20;;;;;;5074327;28;20471;-64
2022/04/05 09:34:49;;;;;;;7.50;1.65;;;21.20;54.20;;;;;;5073561;28;20115;-64
2022/04/05 09:37:14;;;;;;;5.28;1.20;;;21.20;54.20;;;;;;5073976;28;20041;-64
2022/04/05 09:39:41;;;;;;;9.05;1.40;;;21.20;54.20;;;;;;5072213;28;20444;-64
2022/04/05 09:42:08;;;;;;;4.93;1.17;;;21.20;54.20;;;;;;5074190;28;20055;-62
2022/04/05 09:44:38;;;;;;;7.40;1.38;;;21.20;54.20;;;;;;5073590;28;20070;-62
2022/04/05 09:47:14;;;;;;;4.47;1.40;;;21.20;54.00;;;;;;5083349;28;20105;-63
2022/04/05 09:49:41;;;;;;;5.10;1.55;;;21.20;54.00;;;;;;5094053;28;20388;-62
2022/04/05 09:52:25;;;;;;;4.70;1.20;;;21.20;54.10;;;;;;5094172;28;20059;-63
2022/04/05 09:54:51;;;;;;;4.82;1.70;;;21.20;54.10;;;;;;5093299;28;20044;-64
2022/04/05 09:57:30;;;;;;;4.70;1.30;;;21.20;54.10;;;;;;5093441;28;20046;-64
2022/04/05 10:00:07;;;;;;;5.70;1.30;;;21.20;54.10;;;;;;5092907;28;20472;-64
2022/04/05 10:02:33;;;;;;;5.70;1.13;;;21.20;54.10;;;;;;5092960;28;20043;-63
2022/04/05 10:05:06;;;;;;;4.70;1.20;;;21.20;54.20;;;;;;5092756;28;20106;-65
2022/04/05 10:07:32;;;;;;;6.55;1.55;;;21.20;54.20;;;;;;5069725;28;20060;-64
2022/04/05 10:09:58;;;;;;;3.80;1.45;;;21.20;54.20;;;;;;5072726;28;20063;-65
2022/04/05 10:12:24;;;;;;;4.63;1.10;;;21.30;54.20;;;;;;5055057;28;20040;-63
2022/04/05 10:14:50;;;;;;;2.80;1.40;;;21.30;54.20;;;;;;5052506;28;20037;-63
2022/04/05 10:17:15;;;;;;;2.80;1.27;;;21.30;54.20;;;;;;5053122;28;20102;-63
2022/04/05 10:19:42;;;;;;;4.80;1.30;;;21.30;54.20;;;;;;5052161;28;20082;-63
2022/04/05 10:22:08;;;;;;;5.28;1.27;;;21.30;54.20;;;;;;5050375;28;20033;-62
2022/04/05 10:24:33;;;;;;;4.95;1.17;;;21.30;54.20;;;;;;5051885;28;20174;-63
2022/04/05 10:26:59;;;;;;;3.92;1.10;;;21.30;54.20;;;;;;5051856;28;20037;-63
2022/04/05 10:29:24;;;;;;;3.60;1.20;;;21.30;54.10;;;;;;5051112;28;20134;-63
2022/04/05 10:32:02;;;;;;;4.28;1.38;;;21.20;54.10;;;;;;5051850;28;20048;-62
2022/04/05 10:34:39;;;;;;;4.28;1.05;;;21.20;54.00;;;;;;5051843;28;20041;-63
2022/04/05 10:37:12;;;;;;;3.33;1.05;;;21.20;53.90;;;;;;5051275;28;20041;-63
2022/04/05 10:39:37;;;;;;;5.53;1.25;;;21.20;53.90;;;;;;5053101;28;20086;-64
2022/04/05 10:42:09;;;;;;;6.25;1.25;;;21.20;53.90;;;;;;5053123;28;20037;-63
2022/04/05 10:44:36;;;;;;;2.50;1.20;;;21.20;54.10;;;;;;5052107;28;20040;-62
2022/04/05 10:47:04;;;;;;;3.13;1.00;;;21.20;53.90;;;;;;5052508;28;20073;-62
2022/04/05 10:49:49;;;;;;;4.53;1.10;;;21.20;53.90;;;;;;5052872;28;20049;-63
2022/04/05 10:52:18;;;;;;;2.60;0.80;;;21.20;53.90;;;;;;5050558;28;20084;-63
2022/04/05 10:54:52;;;;;;;5.22;0.98;;;21.20;53.90;;;;;;5052857;28;20175;-63
2022/04/05 10:57:30;;;;;;;3.25;0.95;;;21.20;53.80;;;;;;5051865;28;20044;-63
2022/04/05 11:00:10;;;;;;;6.05;1.10;;;21.20;53.80;;;;;;5052676;28;20129;-62
2022/04/05 11:02:45;;;;;;;3.85;1.08;;;21.20;53.80;;;;;;5049787;28;20043;-63
2022/04/05 11:05:14;;;;;;;2.80;0.90;;;21.20;53.80;;;;;;5049994;28;20079;-63
2022/04/05 11:07:51;;;;;;;3.17;1.00;;;21.10;53.80;;;;;;5051525;28;20504;-62
2022/04/05 11:10:27;;;;;;;3.05;1.08;;;21.20;54.10;;;;;;5050892;28;20049;-64
2022/04/05 11:13:06;;;;;;;3.97;1.10;;;21.20;54.20;;;;;;5049875;28;20041;-63
2022/04/05 11:15:48;;;;;;;5.50;1.17;;;21.20;54.20;;;;;;5050193;28;20120;-62
2022/04/05 11:18:16;;;;;;;3.65;0.85;;;21.20;54.30;;;;;;5049877;28;20064;-64
2022/04/05 11:20:42;;;;;;;4.88;1.10;;;21.20;54.40;;;;;;5051596;28;20041;-63
2022/04/05 11:23:08;;;;;;;3.15;0.80;;;21.20;54.40;;;;;;5052163;28;20060;-63
2022/04/05 11:25:34;;;;;;;3.47;0.85;;;21.20;54.50;;;;;;5049784;28;20037;-64
2022/04/05 11:28:21;;;;;;;4.60;0.98;;;21.20;54.50;;;;;;5051226;28;20539;-64
2022/04/05 11:30:55;;;;;;;3.05;1.00;;;21.20;54.50;;;;;;5052105;28;20163;-64
2022/04/05 11:33:33;;;;;;;4.43;1.00;;;21.20;54.60;;;;;;5050991;28;20037;-64
2022/04/05 11:36:04;;;;;;;4.70;1.20;;;21.20;54.60;;;;;;5050493;28;20378;-62
2022/04/05 11:38:48;;;;;;;5.50;1.20;;;21.30;54.70;;;;;;5051537;28;20119;-68
2022/04/05 11:41:25;;;;;;;5.50;0.95;;;21.30;54.70;;;;;;5049204;28;20473;-66
2022/04/05 11:44:01;;;;;;;4.68;1.10;;;21.30;54.60;;;;;;5049759;28;20488;-66
2022/04/05 11:46:31;;;;;;;3.13;1.00;;;21.30;54.50;;;;;;5048352;28;20052;-66
2022/04/05 11:49:00;;;;;;;4.13;0.77;;;21.30;54.60;;;;;;5051683;28;20103;-66
2022/04/05 11:51:32;;;;;;;4.45;1.00;;;21.30;54.60;;;;;;5048693;28;20041;-65
2022/04/05 11:54:08;;;;;;;3.88;1.08;;;21.30;54.60;;;;;;5050997;28;20099;-66
2022/04/05 11:56:36;;;;;;;3.92;0.80;;;21.30;54.60;;;;;;5049995;28;20048;-66
2022/04/05 11:59:04;;;;;;;2.05;0.70;;;21.30;54.60;;;;;;5051890;28;20079;-66
2022/04/05 12:01:33;;;;;;;5.53;0.98;;;21.30;54.60;;;;;;5051060;28;20036;-65
2022/04/05 12:04:09;;;;;;;2.72;1.00;;;21.30;54.60;;;;;;5052299;28;20060;-65
2022/04/05 12:06:39;;;;;;;3.28;0.80;;;21.30;54.30;;;;;;5051637;28;20524;-65
2022/04/05 12:09:13;;;;;;;4.22;0.98;;;21.30;54.30;;;;;;5051255;28;20124;-65
2022/04/05 12:11:40;;;;;;;2.58;0.90;;;21.30;54.30;;;;;;5052149;28;20045;-65
2022/04/05 12:14:09;;;;;;;3.17;0.90;;;21.20;54.20;;;;;;5052042;28;20091;-65
2022/04/05 12:16:48;;;;;;;3.97;0.80;;;21.20;54.10;;;;;;5051082;28;20052;-65
2022/04/05 12:19:20;;;;;;;3.33;0.70;;;21.20;54.20;;;;;;5051879;28;20041;-65
2022/04/05 12:21:50;;;;;;;2.15;0.70;;;21.20;54.10;;;;;;5051020;28;20044;-65
2022/04/05 12:24:16;;;;;;;3.00;1.00;;;21.20;54.10;;;;;;5051892;28;20130;-65
2022/04/05 12:26:41;;;;;;;2.95;0.63;;;21.20;54.10;;;;;;5050557;28;20076;-65
2022/04/05 12:29:08;;;;;;;4.03;0.95;;;21.20;54.00;;;;;;5051092;28;20045;-64
2022/04/05 12:31:33;;;;;;;2.13;0.70;;;21.20;53.90;;;;;;5052905;28;20045;-64
2022/04/05 12:34:02;;;;;;;2.75;0.63;;;21.10;53.80;;;;;;5055622;28;20052;-64
2022/04/05 12:36:47;;;;;;;3.28;0.60;;;21.20;53.90;;;;;;5054172;28;20073;-65
2022/04/05 12:39:25;;;;;;;4.25;0.80;;;21.10;53.70;;;;;;5038293;28;20045;-64
2022/04/05 12:41:54;;;;;;;;;;;21.10;54.50;;;;;;5055827;28;20040;-64
2022/04/05 12:44:26;;;;;;;3.53;0.88;;;21.10;53.80;;;;;;5054370;28;19921;-65
2022/04/05 12:46:53;;;;;;;1.92;0.65;;;21.10;53.90;;;;;;5055364;28;20048;-65
2022/04/05 12:49:33;;;;;;;3.30;0.75;;;21.10;53.90;;;;;;5054838;28;20037;-64